Terminal Aerodrome Forecast
Issued by NWS

Current Version | Previous Version | Text Only | Print | Product List | Glossary On
Versions: 1 2 3 4 5 6 7 8 9 10 11 12 13
000
FTUS46 KSEW 271123
TAFHQM
TAF
KHQM 271123Z 2712/2812 27008KT P6SM -SHRA SCT025 BKN035 OVC045
     FM272000 24015KT P6SM VCSH BKN035 OVC045
     FM272300 25016G22KT P6SM VCSH BKN035
     FM280400 25013KT P6SM VCSH BKN035
     FM280800 24010KT P6SM VCSH OVC030=

USA.gov is the U.S. government's official web portal to all federal, state and local government web resources and services.